<?xml version="1.0" encoding="UTF-8" standalone="no" ?>
<gpx xmlns="http://www.topografix.com/GPX/1/1" xmlns:xsi="http://www.w3.org/2001/XMLSchema-instance" xsi:schemaLocation="http://www.topografix.com/GPX/1/1 http://www.topografix.com/GPX/1/1/gpx.xsd" version="1.1" creator="VisuGPX - https://www.visugpx.com">
  <metadata>
    <name>14880059-40 km</name>
  </metadata>
  <trk>
    <name><![CDATA[14880059-40 km]]></name>
    <trkseg>
      <trkpt lat="47.04524" lon="-0.81794">
        <ele>118</ele>
        <time>2022-09-19T11:40:24Z</time>
      </trkpt>
      <trkpt lat="47.04532" lon="-0.81789">
        <ele>119</ele>
        <time>2022-09-19T11:40:26Z</time>
      </trkpt>
      <trkpt lat="47.04543" lon="-0.81799">
        <ele>119</ele>
        <time>2022-09-19T11:40:29Z</time>
      </trkpt>
      <trkpt lat="47.04541" lon="-0.81814">
        <ele>119</ele>
        <time>2022-09-19T11:40:31Z</time>
      </trkpt>
      <trkpt lat="47.04542" lon="-0.81827">
        <ele>119</ele>
        <time>2022-09-19T11:40:34Z</time>
      </trkpt>
      <trkpt lat="47.04537" lon="-0.81892">
        <ele>120</ele>
        <time>2022-09-19T11:40:44Z</time>
      </trkpt>
      <trkpt lat="47.04535" lon="-0.81941">
        <ele>120</ele>
        <time>2022-09-19T11:40:52Z</time>
      </trkpt>
      <trkpt lat="47.04535" lon="-0.81959">
        <ele>119</ele>
        <time>2022-09-19T11:40:55Z</time>
      </trkpt>
      <trkpt lat="47.04539" lon="-0.81995">
        <ele>118</ele>
        <time>2022-09-19T11:41:00Z</time>
      </trkpt>
      <trkpt lat="47.04553" lon="-0.82047">
        <ele>116</ele>
        <time>2022-09-19T11:41:09Z</time>
      </trkpt>
      <trkpt lat="47.0457" lon="-0.82094">
        <ele>116</ele>
        <time>2022-09-19T11:41:18Z</time>
      </trkpt>
      <trkpt lat="47.04587" lon="-0.82124">
        <ele>115</ele>
        <time>2022-09-19T11:41:24Z</time>
      </trkpt>
      <trkpt lat="47.04587" lon="-0.82139">
        <ele>115</ele>
        <time>2022-09-19T11:41:26Z</time>
      </trkpt>
      <trkpt lat="47.04621" lon="-0.82226">
        <ele>115</ele>
        <time>2022-09-19T11:41:42Z</time>
      </trkpt>
      <trkpt lat="47.0464" lon="-0.82265">
        <ele>117</ele>
        <time>2022-09-19T11:41:50Z</time>
      </trkpt>
      <trkpt lat="47.04653" lon="-0.82288">
        <ele>118</ele>
        <time>2022-09-19T11:41:55Z</time>
      </trkpt>
      <trkpt lat="47.04668" lon="-0.82303">
        <ele>119</ele>
        <time>2022-09-19T11:41:59Z</time>
      </trkpt>
      <trkpt lat="47.04671" lon="-0.82315">
        <ele>119</ele>
        <time>2022-09-19T11:42:01Z</time>
      </trkpt>
      <trkpt lat="47.04734" lon="-0.82411">
        <ele>121</ele>
        <time>2022-09-19T11:42:22Z</time>
      </trkpt>
      <trkpt lat="47.04754" lon="-0.82454">
        <ele>122</ele>
        <time>2022-09-19T11:42:31Z</time>
      </trkpt>
      <trkpt lat="47.0476" lon="-0.82484">
        <ele>122</ele>
        <time>2022-09-19T11:42:36Z</time>
      </trkpt>
      <trkpt lat="47.04762" lon="-0.8251">
        <ele>122</ele>
        <time>2022-09-19T11:42:40Z</time>
      </trkpt>
      <trkpt lat="47.04757" lon="-0.82542">
        <ele>122</ele>
        <time>2022-09-19T11:42:45Z</time>
      </trkpt>
      <trkpt lat="47.04743" lon="-0.82603">
        <ele>124</ele>
        <time>2022-09-19T11:42:55Z</time>
      </trkpt>
      <trkpt lat="47.04722" lon="-0.82686">
        <ele>129</ele>
        <time>2022-09-19T11:43:09Z</time>
      </trkpt>
      <trkpt lat="47.0472" lon="-0.82748">
        <ele>131</ele>
        <time>2022-09-19T11:43:19Z</time>
      </trkpt>
      <trkpt lat="47.04722" lon="-0.82832">
        <ele>132</ele>
        <time>2022-09-19T11:43:32Z</time>
      </trkpt>
      <trkpt lat="47.04722" lon="-0.82841">
        <ele>132</ele>
        <time>2022-09-19T11:43:34Z</time>
      </trkpt>
      <trkpt lat="47.04742" lon="-0.82849">
        <ele>133</ele>
        <time>2022-09-19T11:43:39Z</time>
      </trkpt>
      <trkpt lat="47.04758" lon="-0.82878">
        <ele>133</ele>
        <time>2022-09-19T11:43:45Z</time>
      </trkpt>
      <trkpt lat="47.04777" lon="-0.82917">
        <ele>134</ele>
        <time>2022-09-19T11:43:52Z</time>
      </trkpt>
      <trkpt lat="47.04807" lon="-0.82955">
        <ele>134</ele>
        <time>2022-09-19T11:44:02Z</time>
      </trkpt>
      <trkpt lat="47.04836" lon="-0.83014">
        <ele>134</ele>
        <time>2022-09-19T11:44:13Z</time>
      </trkpt>
      <trkpt lat="47.04864" lon="-0.83062">
        <ele>134</ele>
        <time>2022-09-19T11:44:23Z</time>
      </trkpt>
      <trkpt lat="47.04879" lon="-0.83083">
        <ele>134</ele>
        <time>2022-09-19T11:44:28Z</time>
      </trkpt>
      <trkpt lat="47.04873" lon="-0.83091">
        <ele>134</ele>
        <time>2022-09-19T11:44:30Z</time>
      </trkpt>
      <trkpt lat="47.04873" lon="-0.83103">
        <ele>134</ele>
        <time>2022-09-19T11:44:32Z</time>
      </trkpt>
      <trkpt lat="47.04872" lon="-0.83149">
        <ele>134</ele>
        <time>2022-09-19T11:44:39Z</time>
      </trkpt>
      <trkpt lat="47.04878" lon="-0.83175">
        <ele>134</ele>
        <time>2022-09-19T11:44:44Z</time>
      </trkpt>
      <trkpt lat="47.04928" lon="-0.83276">
        <ele>135</ele>
        <time>2022-09-19T11:45:03Z</time>
      </trkpt>
      <trkpt lat="47.04935" lon="-0.83285">
        <ele>135</ele>
        <time>2022-09-19T11:45:06Z</time>
      </trkpt>
      <trkpt lat="47.0495" lon="-0.83311">
        <ele>135</ele>
        <time>2022-09-19T11:45:11Z</time>
      </trkpt>
      <trkpt lat="47.04948" lon="-0.83326">
        <ele>135</ele>
        <time>2022-09-19T11:45:13Z</time>
      </trkpt>
      <trkpt lat="47.04939" lon="-0.83356">
        <ele>134</ele>
        <time>2022-09-19T11:45:19Z</time>
      </trkpt>
      <trkpt lat="47.04951" lon="-0.8339">
        <ele>134</ele>
        <time>2022-09-19T11:45:25Z</time>
      </trkpt>
      <trkpt lat="47.04905" lon="-0.83436">
        <ele>132</ele>
        <time>2022-09-19T11:45:38Z</time>
      </trkpt>
      <trkpt lat="47.04925" lon="-0.83518">
        <ele>132</ele>
        <time>2022-09-19T11:45:52Z</time>
      </trkpt>
      <trkpt lat="47.04934" lon="-0.83511">
        <ele>132</ele>
        <time>2022-09-19T11:45:54Z</time>
      </trkpt>
      <trkpt lat="47.04937" lon="-0.835">
        <ele>132</ele>
        <time>2022-09-19T11:45:56Z</time>
      </trkpt>
      <trkpt lat="47.05078" lon="-0.8341">
        <ele>136</ele>
        <time>2022-09-19T11:46:32Z</time>
      </trkpt>
      <trkpt lat="47.05099" lon="-0.83386">
        <ele>136</ele>
        <time>2022-09-19T11:46:38Z</time>
      </trkpt>
      <trkpt lat="47.05193" lon="-0.83274">
        <ele>137</ele>
        <time>2022-09-19T11:47:06Z</time>
      </trkpt>
      <trkpt lat="47.05237" lon="-0.83235">
        <ele>138</ele>
        <time>2022-09-19T11:47:18Z</time>
      </trkpt>
      <trkpt lat="47.05263" lon="-0.83209">
        <ele>138</ele>
        <time>2022-09-19T11:47:26Z</time>
      </trkpt>
      <trkpt lat="47.05276" lon="-0.83183">
        <ele>138</ele>
        <time>2022-09-19T11:47:31Z</time>
      </trkpt>
      <trkpt lat="47.0529" lon="-0.83143">
        <ele>139</ele>
        <time>2022-09-19T11:47:38Z</time>
      </trkpt>
      <trkpt lat="47.05301" lon="-0.83078">
        <ele>140</ele>
        <time>2022-09-19T11:47:49Z</time>
      </trkpt>
      <trkpt lat="47.05304" lon="-0.83031">
        <ele>140</ele>
        <time>2022-09-19T11:47:56Z</time>
      </trkpt>
      <trkpt lat="47.05301" lon="-0.82983">
        <ele>141</ele>
        <time>2022-09-19T11:48:04Z</time>
      </trkpt>
      <trkpt lat="47.05314" lon="-0.82964">
        <ele>142</ele>
        <time>2022-09-19T11:48:08Z</time>
      </trkpt>
      <trkpt lat="47.05363" lon="-0.82927">
        <ele>143</ele>
        <time>2022-09-19T11:48:21Z</time>
      </trkpt>
      <trkpt lat="47.05459" lon="-0.82881">
        <ele>142</ele>
        <time>2022-09-19T11:48:44Z</time>
      </trkpt>
      <trkpt lat="47.05461" lon="-0.82874">
        <ele>142</ele>
        <time>2022-09-19T11:48:46Z</time>
      </trkpt>
      <trkpt lat="47.05574" lon="-0.82821">
        <ele>144</ele>
        <time>2022-09-19T11:49:13Z</time>
      </trkpt>
      <trkpt lat="47.05586" lon="-0.82879">
        <ele>143</ele>
        <time>2022-09-19T11:49:23Z</time>
      </trkpt>
      <trkpt lat="47.05618" lon="-0.82985">
        <ele>143</ele>
        <time>2022-09-19T11:49:41Z</time>
      </trkpt>
      <trkpt lat="47.05652" lon="-0.83071">
        <ele>143</ele>
        <time>2022-09-19T11:49:57Z</time>
      </trkpt>
      <trkpt lat="47.05667" lon="-0.83115">
        <ele>143</ele>
        <time>2022-09-19T11:50:05Z</time>
      </trkpt>
      <trkpt lat="47.05684" lon="-0.83182">
        <ele>142</ele>
        <time>2022-09-19T11:50:16Z</time>
      </trkpt>
      <trkpt lat="47.05702" lon="-0.83274">
        <ele>141</ele>
        <time>2022-09-19T11:50:32Z</time>
      </trkpt>
      <trkpt lat="47.05704" lon="-0.83301">
        <ele>141</ele>
        <time>2022-09-19T11:50:36Z</time>
      </trkpt>
      <trkpt lat="47.05699" lon="-0.834">
        <ele>142</ele>
        <time>2022-09-19T11:50:52Z</time>
      </trkpt>
      <trkpt lat="47.05696" lon="-0.83439">
        <ele>142</ele>
        <time>2022-09-19T11:50:58Z</time>
      </trkpt>
      <trkpt lat="47.05699" lon="-0.83487">
        <ele>141</ele>
        <time>2022-09-19T11:51:06Z</time>
      </trkpt>
      <trkpt lat="47.05708" lon="-0.83533">
        <ele>141</ele>
        <time>2022-09-19T11:51:13Z</time>
      </trkpt>
      <trkpt lat="47.05717" lon="-0.83564">
        <ele>141</ele>
        <time>2022-09-19T11:51:19Z</time>
      </trkpt>
      <trkpt lat="47.0577" lon="-0.8349">
        <ele>144</ele>
        <time>2022-09-19T11:51:36Z</time>
      </trkpt>
      <trkpt lat="47.05805" lon="-0.83445">
        <ele>145</ele>
        <time>2022-09-19T11:51:47Z</time>
      </trkpt>
      <trkpt lat="47.0586" lon="-0.83386">
        <ele>145</ele>
        <time>2022-09-19T11:52:03Z</time>
      </trkpt>
      <trkpt lat="47.0592" lon="-0.83326">
        <ele>146</ele>
        <time>2022-09-19T11:52:20Z</time>
      </trkpt>
      <trkpt lat="47.0597" lon="-0.83264">
        <ele>147</ele>
        <time>2022-09-19T11:52:35Z</time>
      </trkpt>
      <trkpt lat="47.06026" lon="-0.83188">
        <ele>147</ele>
        <time>2022-09-19T11:52:53Z</time>
      </trkpt>
      <trkpt lat="47.06035" lon="-0.8316">
        <ele>147</ele>
        <time>2022-09-19T11:52:58Z</time>
      </trkpt>
      <trkpt lat="47.06095" lon="-0.83014">
        <ele>148</ele>
        <time>2022-09-19T11:53:25Z</time>
      </trkpt>
      <trkpt lat="47.06105" lon="-0.83013">
        <ele>148</ele>
        <time>2022-09-19T11:53:27Z</time>
      </trkpt>
      <trkpt lat="47.06108" lon="-0.83038">
        <ele>148</ele>
        <time>2022-09-19T11:53:31Z</time>
      </trkpt>
      <trkpt lat="47.06126" lon="-0.83155">
        <ele>147</ele>
        <time>2022-09-19T11:53:50Z</time>
      </trkpt>
      <trkpt lat="47.06409" lon="-0.83046">
        <ele>140</ele>
        <time>2022-09-19T11:54:58Z</time>
      </trkpt>
      <trkpt lat="47.06428" lon="-0.83064">
        <ele>140</ele>
        <time>2022-09-19T11:55:04Z</time>
      </trkpt>
      <trkpt lat="47.06449" lon="-0.83121">
        <ele>139</ele>
        <time>2022-09-19T11:55:14Z</time>
      </trkpt>
      <trkpt lat="47.06473" lon="-0.83126">
        <ele>138</ele>
        <time>2022-09-19T11:55:20Z</time>
      </trkpt>
      <trkpt lat="47.06501" lon="-0.83251">
        <ele>137</ele>
        <time>2022-09-19T11:55:41Z</time>
      </trkpt>
      <trkpt lat="47.06528" lon="-0.83277">
        <ele>136</ele>
        <time>2022-09-19T11:55:48Z</time>
      </trkpt>
      <trkpt lat="47.06572" lon="-0.8328">
        <ele>135</ele>
        <time>2022-09-19T11:55:58Z</time>
      </trkpt>
      <trkpt lat="47.06663" lon="-0.83261">
        <ele>133</ele>
        <time>2022-09-19T11:56:20Z</time>
      </trkpt>
      <trkpt lat="47.06779" lon="-0.8327">
        <ele>130</ele>
        <time>2022-09-19T11:56:47Z</time>
      </trkpt>
      <trkpt lat="47.06802" lon="-0.83247">
        <ele>129</ele>
        <time>2022-09-19T11:56:54Z</time>
      </trkpt>
      <trkpt lat="47.06794" lon="-0.83199">
        <ele>131</ele>
        <time>2022-09-19T11:57:01Z</time>
      </trkpt>
      <trkpt lat="47.06919" lon="-0.83187">
        <ele>127</ele>
        <time>2022-09-19T11:57:31Z</time>
      </trkpt>
      <trkpt lat="47.07177" lon="-0.83149">
        <ele>122</ele>
        <time>2022-09-19T11:58:31Z</time>
      </trkpt>
      <trkpt lat="47.07261" lon="-0.83137">
        <ele>120</ele>
        <time>2022-09-19T11:58:51Z</time>
      </trkpt>
      <trkpt lat="47.07328" lon="-0.8315">
        <ele>118</ele>
        <time>2022-09-19T11:59:07Z</time>
      </trkpt>
      <trkpt lat="47.07379" lon="-0.8318">
        <ele>117</ele>
        <time>2022-09-19T11:59:20Z</time>
      </trkpt>
      <trkpt lat="47.07563" lon="-0.8312">
        <ele>117</ele>
        <time>2022-09-19T12:00:04Z</time>
      </trkpt>
      <trkpt lat="47.07626" lon="-0.83096">
        <ele>115</ele>
        <time>2022-09-19T12:00:19Z</time>
      </trkpt>
      <trkpt lat="47.07643" lon="-0.83129">
        <ele>114</ele>
        <time>2022-09-19T12:00:25Z</time>
      </trkpt>
      <trkpt lat="47.07667" lon="-0.83133">
        <ele>113</ele>
        <time>2022-09-19T12:00:31Z</time>
      </trkpt>
      <trkpt lat="47.07649" lon="-0.83088">
        <ele>114</ele>
        <time>2022-09-19T12:00:39Z</time>
      </trkpt>
      <trkpt lat="47.07625" lon="-0.83052">
        <ele>115</ele>
        <time>2022-09-19T12:00:47Z</time>
      </trkpt>
      <trkpt lat="47.07597" lon="-0.82978">
        <ele>117</ele>
        <time>2022-09-19T12:01:01Z</time>
      </trkpt>
      <trkpt lat="47.07573" lon="-0.8292">
        <ele>119</ele>
        <time>2022-09-19T12:01:12Z</time>
      </trkpt>
      <trkpt lat="47.07551" lon="-0.82868">
        <ele>120</ele>
        <time>2022-09-19T12:01:21Z</time>
      </trkpt>
      <trkpt lat="47.07475" lon="-0.8279">
        <ele>122</ele>
        <time>2022-09-19T12:01:43Z</time>
      </trkpt>
      <trkpt lat="47.07447" lon="-0.82749">
        <ele>123</ele>
        <time>2022-09-19T12:01:52Z</time>
      </trkpt>
      <trkpt lat="47.07431" lon="-0.82695">
        <ele>124</ele>
        <time>2022-09-19T12:02:02Z</time>
      </trkpt>
      <trkpt lat="47.07426" lon="-0.82593">
        <ele>123</ele>
        <time>2022-09-19T12:02:18Z</time>
      </trkpt>
      <trkpt lat="47.0742" lon="-0.82512">
        <ele>123</ele>
        <time>2022-09-19T12:02:31Z</time>
      </trkpt>
      <trkpt lat="47.07402" lon="-0.82417">
        <ele>124</ele>
        <time>2022-09-19T12:02:46Z</time>
      </trkpt>
      <trkpt lat="47.07394" lon="-0.82356">
        <ele>123</ele>
        <time>2022-09-19T12:02:56Z</time>
      </trkpt>
      <trkpt lat="47.07414" lon="-0.82316">
        <ele>123</ele>
        <time>2022-09-19T12:03:04Z</time>
      </trkpt>
      <trkpt lat="47.07469" lon="-0.82199">
        <ele>122</ele>
        <time>2022-09-19T12:03:27Z</time>
      </trkpt>
      <trkpt lat="47.07493" lon="-0.82136">
        <ele>123</ele>
        <time>2022-09-19T12:03:38Z</time>
      </trkpt>
      <trkpt lat="47.0752" lon="-0.82023">
        <ele>126</ele>
        <time>2022-09-19T12:03:57Z</time>
      </trkpt>
      <trkpt lat="47.0752" lon="-0.81929">
        <ele>127</ele>
        <time>2022-09-19T12:04:12Z</time>
      </trkpt>
      <trkpt lat="47.07517" lon="-0.81845">
        <ele>128</ele>
        <time>2022-09-19T12:04:26Z</time>
      </trkpt>
      <trkpt lat="47.07536" lon="-0.81727">
        <ele>130</ele>
        <time>2022-09-19T12:04:45Z</time>
      </trkpt>
      <trkpt lat="47.07524" lon="-0.81663">
        <ele>130</ele>
        <time>2022-09-19T12:04:56Z</time>
      </trkpt>
      <trkpt lat="47.07514" lon="-0.81601">
        <ele>130</ele>
        <time>2022-09-19T12:05:06Z</time>
      </trkpt>
      <trkpt lat="47.07524" lon="-0.81515">
        <ele>130</ele>
        <time>2022-09-19T12:05:20Z</time>
      </trkpt>
      <trkpt lat="47.07453" lon="-0.81504">
        <ele>128</ele>
        <time>2022-09-19T12:05:36Z</time>
      </trkpt>
      <trkpt lat="47.07429" lon="-0.81109">
        <ele>129</ele>
        <time>2022-09-19T12:06:39Z</time>
      </trkpt>
      <trkpt lat="47.07423" lon="-0.80921">
        <ele>129</ele>
        <time>2022-09-19T12:07:09Z</time>
      </trkpt>
      <trkpt lat="47.07428" lon="-0.80865">
        <ele>131</ele>
        <time>2022-09-19T12:07:18Z</time>
      </trkpt>
      <trkpt lat="47.07439" lon="-0.80684">
        <ele>135</ele>
        <time>2022-09-19T12:07:47Z</time>
      </trkpt>
      <trkpt lat="47.07474" lon="-0.8072">
        <ele>136</ele>
        <time>2022-09-19T12:07:57Z</time>
      </trkpt>
      <trkpt lat="47.07551" lon="-0.80848">
        <ele>138</ele>
        <time>2022-09-19T12:08:24Z</time>
      </trkpt>
      <trkpt lat="47.07573" lon="-0.80864">
        <ele>139</ele>
        <time>2022-09-19T12:08:30Z</time>
      </trkpt>
      <trkpt lat="47.07607" lon="-0.80841">
        <ele>141</ele>
        <time>2022-09-19T12:08:39Z</time>
      </trkpt>
      <trkpt lat="47.07707" lon="-0.8084">
        <ele>143</ele>
        <time>2022-09-19T12:09:02Z</time>
      </trkpt>
      <trkpt lat="47.07766" lon="-0.80857">
        <ele>144</ele>
        <time>2022-09-19T12:09:16Z</time>
      </trkpt>
      <trkpt lat="47.07871" lon="-0.80868">
        <ele>148</ele>
        <time>2022-09-19T12:09:41Z</time>
      </trkpt>
      <trkpt lat="47.07897" lon="-0.80881">
        <ele>147</ele>
        <time>2022-09-19T12:09:47Z</time>
      </trkpt>
      <trkpt lat="47.07941" lon="-0.80884">
        <ele>147</ele>
        <time>2022-09-19T12:09:57Z</time>
      </trkpt>
      <trkpt lat="47.07966" lon="-0.80873">
        <ele>148</ele>
        <time>2022-09-19T12:10:04Z</time>
      </trkpt>
      <trkpt lat="47.08042" lon="-0.80789">
        <ele>147</ele>
        <time>2022-09-19T12:10:26Z</time>
      </trkpt>
      <trkpt lat="47.08137" lon="-0.807">
        <ele>143</ele>
        <time>2022-09-19T12:10:52Z</time>
      </trkpt>
      <trkpt lat="47.08179" lon="-0.80681">
        <ele>142</ele>
        <time>2022-09-19T12:11:02Z</time>
      </trkpt>
      <trkpt lat="47.08331" lon="-0.80619">
        <ele>143</ele>
        <time>2022-09-19T12:11:39Z</time>
      </trkpt>
      <trkpt lat="47.08494" lon="-0.80621">
        <ele>140</ele>
        <time>2022-09-19T12:12:17Z</time>
      </trkpt>
      <trkpt lat="47.08587" lon="-0.80603">
        <ele>137</ele>
        <time>2022-09-19T12:12:39Z</time>
      </trkpt>
      <trkpt lat="47.08721" lon="-0.80584">
        <ele>131</ele>
        <time>2022-09-19T12:13:11Z</time>
      </trkpt>
      <trkpt lat="47.08745" lon="-0.80568">
        <ele>130</ele>
        <time>2022-09-19T12:13:17Z</time>
      </trkpt>
      <trkpt lat="47.08819" lon="-0.80506">
        <ele>127</ele>
        <time>2022-09-19T12:13:37Z</time>
      </trkpt>
      <trkpt lat="47.08833" lon="-0.8046">
        <ele>127</ele>
        <time>2022-09-19T12:13:45Z</time>
      </trkpt>
      <trkpt lat="47.08875" lon="-0.80411">
        <ele>129</ele>
        <time>2022-09-19T12:13:57Z</time>
      </trkpt>
      <trkpt lat="47.08959" lon="-0.80331">
        <ele>132</ele>
        <time>2022-09-19T12:14:21Z</time>
      </trkpt>
      <trkpt lat="47.0902" lon="-0.80281">
        <ele>134</ele>
        <time>2022-09-19T12:14:37Z</time>
      </trkpt>
      <trkpt lat="47.09072" lon="-0.80219">
        <ele>135</ele>
        <time>2022-09-19T12:14:52Z</time>
      </trkpt>
      <trkpt lat="47.09105" lon="-0.80149">
        <ele>136</ele>
        <time>2022-09-19T12:15:06Z</time>
      </trkpt>
      <trkpt lat="47.09129" lon="-0.80116">
        <ele>136</ele>
        <time>2022-09-19T12:15:14Z</time>
      </trkpt>
      <trkpt lat="47.09147" lon="-0.80124">
        <ele>136</ele>
        <time>2022-09-19T12:15:18Z</time>
      </trkpt>
      <trkpt lat="47.09179" lon="-0.8017">
        <ele>136</ele>
        <time>2022-09-19T12:15:29Z</time>
      </trkpt>
      <trkpt lat="47.09208" lon="-0.80199">
        <ele>135</ele>
        <time>2022-09-19T12:15:37Z</time>
      </trkpt>
      <trkpt lat="47.09253" lon="-0.80218">
        <ele>136</ele>
        <time>2022-09-19T12:15:48Z</time>
      </trkpt>
      <trkpt lat="47.09282" lon="-0.80231">
        <ele>135</ele>
        <time>2022-09-19T12:15:55Z</time>
      </trkpt>
      <trkpt lat="47.09296" lon="-0.80216">
        <ele>135</ele>
        <time>2022-09-19T12:15:59Z</time>
      </trkpt>
      <trkpt lat="47.09297" lon="-0.80167">
        <ele>134</ele>
        <time>2022-09-19T12:16:07Z</time>
      </trkpt>
      <trkpt lat="47.09312" lon="-0.80093">
        <ele>134</ele>
        <time>2022-09-19T12:16:19Z</time>
      </trkpt>
      <trkpt lat="47.09348" lon="-0.79979">
        <ele>134</ele>
        <time>2022-09-19T12:16:39Z</time>
      </trkpt>
      <trkpt lat="47.09372" lon="-0.79985">
        <ele>133</ele>
        <time>2022-09-19T12:16:45Z</time>
      </trkpt>
      <trkpt lat="47.09392" lon="-0.7999">
        <ele>133</ele>
        <time>2022-09-19T12:16:49Z</time>
      </trkpt>
      <trkpt lat="47.09396" lon="-0.80015">
        <ele>133</ele>
        <time>2022-09-19T12:16:53Z</time>
      </trkpt>
      <trkpt lat="47.09424" lon="-0.80053">
        <ele>133</ele>
        <time>2022-09-19T12:17:02Z</time>
      </trkpt>
      <trkpt lat="47.09493" lon="-0.80101">
        <ele>132</ele>
        <time>2022-09-19T12:17:20Z</time>
      </trkpt>
      <trkpt lat="47.09543" lon="-0.80106">
        <ele>131</ele>
        <time>2022-09-19T12:17:32Z</time>
      </trkpt>
      <trkpt lat="47.09588" lon="-0.8009">
        <ele>131</ele>
        <time>2022-09-19T12:17:43Z</time>
      </trkpt>
      <trkpt lat="47.09628" lon="-0.80228">
        <ele>128</ele>
        <time>2022-09-19T12:18:06Z</time>
      </trkpt>
      <trkpt lat="47.09656" lon="-0.8031">
        <ele>126</ele>
        <time>2022-09-19T12:18:21Z</time>
      </trkpt>
      <trkpt lat="47.09737" lon="-0.80475">
        <ele>122</ele>
        <time>2022-09-19T12:18:53Z</time>
      </trkpt>
      <trkpt lat="47.09744" lon="-0.80519">
        <ele>122</ele>
        <time>2022-09-19T12:19:01Z</time>
      </trkpt>
      <trkpt lat="47.09758" lon="-0.80557">
        <ele>123</ele>
        <time>2022-09-19T12:19:07Z</time>
      </trkpt>
      <trkpt lat="47.09705" lon="-0.8069">
        <ele>122</ele>
        <time>2022-09-19T12:19:32Z</time>
      </trkpt>
      <trkpt lat="47.09778" lon="-0.80763">
        <ele>125</ele>
        <time>2022-09-19T12:19:53Z</time>
      </trkpt>
      <trkpt lat="47.09842" lon="-0.80775">
        <ele>127</ele>
        <time>2022-09-19T12:20:08Z</time>
      </trkpt>
      <trkpt lat="47.09863" lon="-0.80897">
        <ele>127</ele>
        <time>2022-09-19T12:20:28Z</time>
      </trkpt>
      <trkpt lat="47.09732" lon="-0.81071">
        <ele>124</ele>
        <time>2022-09-19T12:21:09Z</time>
      </trkpt>
      <trkpt lat="47.09697" lon="-0.81092">
        <ele>123</ele>
        <time>2022-09-19T12:21:18Z</time>
      </trkpt>
      <trkpt lat="47.09634" lon="-0.81095">
        <ele>119</ele>
        <time>2022-09-19T12:21:32Z</time>
      </trkpt>
      <trkpt lat="47.09592" lon="-0.81229">
        <ele>117</ele>
        <time>2022-09-19T12:21:56Z</time>
      </trkpt>
      <trkpt lat="47.09577" lon="-0.81317">
        <ele>114</ele>
        <time>2022-09-19T12:22:10Z</time>
      </trkpt>
      <trkpt lat="47.09587" lon="-0.81432">
        <ele>114</ele>
        <time>2022-09-19T12:22:29Z</time>
      </trkpt>
      <trkpt lat="47.09638" lon="-0.81475">
        <ele>117</ele>
        <time>2022-09-19T12:22:42Z</time>
      </trkpt>
      <trkpt lat="47.09681" lon="-0.81485">
        <ele>119</ele>
        <time>2022-09-19T12:22:53Z</time>
      </trkpt>
      <trkpt lat="47.09721" lon="-0.81742">
        <ele>115</ele>
        <time>2022-09-19T12:23:35Z</time>
      </trkpt>
      <trkpt lat="47.09716" lon="-0.81807">
        <ele>116</ele>
        <time>2022-09-19T12:23:45Z</time>
      </trkpt>
      <trkpt lat="47.09705" lon="-0.81912">
        <ele>115</ele>
        <time>2022-09-19T12:24:02Z</time>
      </trkpt>
      <trkpt lat="47.09744" lon="-0.8191">
        <ele>113</ele>
        <time>2022-09-19T12:24:11Z</time>
      </trkpt>
      <trkpt lat="47.09893" lon="-0.8174">
        <ele>115</ele>
        <time>2022-09-19T12:24:55Z</time>
      </trkpt>
      <trkpt lat="47.10145" lon="-0.81419">
        <ele>119</ele>
        <time>2022-09-19T12:26:13Z</time>
      </trkpt>
      <trkpt lat="47.1018" lon="-0.81413">
        <ele>119</ele>
        <time>2022-09-19T12:26:21Z</time>
      </trkpt>
      <trkpt lat="47.10292" lon="-0.81279">
        <ele>121</ele>
        <time>2022-09-19T12:26:55Z</time>
      </trkpt>
      <trkpt lat="47.10524" lon="-0.81056">
        <ele>124</ele>
        <time>2022-09-19T12:28:00Z</time>
      </trkpt>
      <trkpt lat="47.10774" lon="-0.80831">
        <ele>127</ele>
        <time>2022-09-19T12:29:08Z</time>
      </trkpt>
      <trkpt lat="47.11004" lon="-0.8064">
        <ele>117</ele>
        <time>2022-09-19T12:30:10Z</time>
      </trkpt>
      <trkpt lat="47.11043" lon="-0.80536">
        <ele>114</ele>
        <time>2022-09-19T12:30:29Z</time>
      </trkpt>
      <trkpt lat="47.11116" lon="-0.80355">
        <ele>113</ele>
        <time>2022-09-19T12:31:02Z</time>
      </trkpt>
      <trkpt lat="47.11222" lon="-0.80202">
        <ele>113</ele>
        <time>2022-09-19T12:31:37Z</time>
      </trkpt>
      <trkpt lat="47.11253" lon="-0.80112">
        <ele>114</ele>
        <time>2022-09-19T12:31:53Z</time>
      </trkpt>
      <trkpt lat="47.11312" lon="-0.80027">
        <ele>112</ele>
        <time>2022-09-19T12:32:12Z</time>
      </trkpt>
      <trkpt lat="47.1137" lon="-0.79982">
        <ele>111</ele>
        <time>2022-09-19T12:32:27Z</time>
      </trkpt>
      <trkpt lat="47.11459" lon="-0.79836">
        <ele>113</ele>
        <time>2022-09-19T12:32:59Z</time>
      </trkpt>
      <trkpt lat="47.11713" lon="-0.80006">
        <ele>104</ele>
        <time>2022-09-19T12:34:04Z</time>
      </trkpt>
      <trkpt lat="47.11752" lon="-0.80086">
        <ele>104</ele>
        <time>2022-09-19T12:34:19Z</time>
      </trkpt>
      <trkpt lat="47.11764" lon="-0.80106">
        <ele>103</ele>
        <time>2022-09-19T12:34:24Z</time>
      </trkpt>
      <trkpt lat="47.11808" lon="-0.80073">
        <ele>102</ele>
        <time>2022-09-19T12:34:35Z</time>
      </trkpt>
      <trkpt lat="47.11854" lon="-0.80033">
        <ele>102</ele>
        <time>2022-09-19T12:34:48Z</time>
      </trkpt>
      <trkpt lat="47.11864" lon="-0.80006">
        <ele>103</ele>
        <time>2022-09-19T12:34:53Z</time>
      </trkpt>
      <trkpt lat="47.11888" lon="-0.79985">
        <ele>103</ele>
        <time>2022-09-19T12:34:59Z</time>
      </trkpt>
      <trkpt lat="47.11904" lon="-0.79953">
        <ele>103</ele>
        <time>2022-09-19T12:35:05Z</time>
      </trkpt>
      <trkpt lat="47.11905" lon="-0.79925">
        <ele>103</ele>
        <time>2022-09-19T12:35:10Z</time>
      </trkpt>
      <trkpt lat="47.11915" lon="-0.79902">
        <ele>103</ele>
        <time>2022-09-19T12:35:14Z</time>
      </trkpt>
      <trkpt lat="47.1189" lon="-0.79866">
        <ele>104</ele>
        <time>2022-09-19T12:35:22Z</time>
      </trkpt>
      <trkpt lat="47.11891" lon="-0.79842">
        <ele>104</ele>
        <time>2022-09-19T12:35:26Z</time>
      </trkpt>
      <trkpt lat="47.11905" lon="-0.79763">
        <ele>103</ele>
        <time>2022-09-19T12:35:39Z</time>
      </trkpt>
      <trkpt lat="47.1192" lon="-0.79743">
        <ele>103</ele>
        <time>2022-09-19T12:35:44Z</time>
      </trkpt>
      <trkpt lat="47.11911" lon="-0.79706">
        <ele>103</ele>
        <time>2022-09-19T12:35:50Z</time>
      </trkpt>
      <trkpt lat="47.11924" lon="-0.79668">
        <ele>103</ele>
        <time>2022-09-19T12:35:57Z</time>
      </trkpt>
      <trkpt lat="47.11864" lon="-0.79583">
        <ele>103</ele>
        <time>2022-09-19T12:36:16Z</time>
      </trkpt>
      <trkpt lat="47.11863" lon="-0.79554">
        <ele>103</ele>
        <time>2022-09-19T12:36:21Z</time>
      </trkpt>
      <trkpt lat="47.11865" lon="-0.79537">
        <ele>104</ele>
        <time>2022-09-19T12:36:24Z</time>
      </trkpt>
      <trkpt lat="47.11855" lon="-0.79521">
        <ele>104</ele>
        <time>2022-09-19T12:36:27Z</time>
      </trkpt>
      <trkpt lat="47.11859" lon="-0.79499">
        <ele>105</ele>
        <time>2022-09-19T12:36:31Z</time>
      </trkpt>
      <trkpt lat="47.11857" lon="-0.7948">
        <ele>104</ele>
        <time>2022-09-19T12:36:34Z</time>
      </trkpt>
      <trkpt lat="47.11843" lon="-0.79463">
        <ele>104</ele>
        <time>2022-09-19T12:36:38Z</time>
      </trkpt>
      <trkpt lat="47.11846" lon="-0.79439">
        <ele>104</ele>
        <time>2022-09-19T12:36:42Z</time>
      </trkpt>
      <trkpt lat="47.11839" lon="-0.79422">
        <ele>103</ele>
        <time>2022-09-19T12:36:45Z</time>
      </trkpt>
      <trkpt lat="47.11836" lon="-0.79407">
        <ele>103</ele>
        <time>2022-09-19T12:36:48Z</time>
      </trkpt>
      <trkpt lat="47.11855" lon="-0.79382">
        <ele>104</ele>
        <time>2022-09-19T12:36:54Z</time>
      </trkpt>
      <trkpt lat="47.11871" lon="-0.79361">
        <ele>105</ele>
        <time>2022-09-19T12:36:59Z</time>
      </trkpt>
      <trkpt lat="47.11846" lon="-0.79311">
        <ele>106</ele>
        <time>2022-09-19T12:37:08Z</time>
      </trkpt>
      <trkpt lat="47.11832" lon="-0.79278">
        <ele>106</ele>
        <time>2022-09-19T12:37:15Z</time>
      </trkpt>
      <trkpt lat="47.11827" lon="-0.79187">
        <ele>108</ele>
        <time>2022-09-19T12:37:29Z</time>
      </trkpt>
      <trkpt lat="47.11824" lon="-0.79162">
        <ele>108</ele>
        <time>2022-09-19T12:37:33Z</time>
      </trkpt>
      <trkpt lat="47.11817" lon="-0.79145">
        <ele>108</ele>
        <time>2022-09-19T12:37:36Z</time>
      </trkpt>
      <trkpt lat="47.11802" lon="-0.79135">
        <ele>108</ele>
        <time>2022-09-19T12:37:40Z</time>
      </trkpt>
      <trkpt lat="47.11796" lon="-0.79112">
        <ele>109</ele>
        <time>2022-09-19T12:37:44Z</time>
      </trkpt>
      <trkpt lat="47.11779" lon="-0.79096">
        <ele>109</ele>
        <time>2022-09-19T12:37:49Z</time>
      </trkpt>
      <trkpt lat="47.11767" lon="-0.79081">
        <ele>110</ele>
        <time>2022-09-19T12:37:52Z</time>
      </trkpt>
      <trkpt lat="47.1185" lon="-0.79033">
        <ele>110</ele>
        <time>2022-09-19T12:38:13Z</time>
      </trkpt>
      <trkpt lat="47.11914" lon="-0.78997">
        <ele>114</ele>
        <time>2022-09-19T12:38:29Z</time>
      </trkpt>
      <trkpt lat="47.11987" lon="-0.78959">
        <ele>117</ele>
        <time>2022-09-19T12:38:47Z</time>
      </trkpt>
      <trkpt lat="47.12032" lon="-0.78938">
        <ele>120</ele>
        <time>2022-09-19T12:38:58Z</time>
      </trkpt>
      <trkpt lat="47.12051" lon="-0.78932">
        <ele>121</ele>
        <time>2022-09-19T12:39:03Z</time>
      </trkpt>
      <trkpt lat="47.12047" lon="-0.78905">
        <ele>121</ele>
        <time>2022-09-19T12:39:07Z</time>
      </trkpt>
      <trkpt lat="47.12023" lon="-0.78861">
        <ele>119</ele>
        <time>2022-09-19T12:39:16Z</time>
      </trkpt>
      <trkpt lat="47.12014" lon="-0.78794">
        <ele>117</ele>
        <time>2022-09-19T12:39:27Z</time>
      </trkpt>
      <trkpt lat="47.12003" lon="-0.78712">
        <ele>114</ele>
        <time>2022-09-19T12:39:40Z</time>
      </trkpt>
      <trkpt lat="47.12001" lon="-0.78649">
        <ele>112</ele>
        <time>2022-09-19T12:39:50Z</time>
      </trkpt>
      <trkpt lat="47.12003" lon="-0.78567">
        <ele>111</ele>
        <time>2022-09-19T12:40:03Z</time>
      </trkpt>
      <trkpt lat="47.12003" lon="-0.78542">
        <ele>111</ele>
        <time>2022-09-19T12:40:07Z</time>
      </trkpt>
      <trkpt lat="47.12017" lon="-0.78451">
        <ele>112</ele>
        <time>2022-09-19T12:40:22Z</time>
      </trkpt>
      <trkpt lat="47.12032" lon="-0.78313">
        <ele>111</ele>
        <time>2022-09-19T12:40:44Z</time>
      </trkpt>
      <trkpt lat="47.12039" lon="-0.78256">
        <ele>111</ele>
        <time>2022-09-19T12:40:54Z</time>
      </trkpt>
      <trkpt lat="47.12081" lon="-0.78145">
        <ele>109</ele>
        <time>2022-09-19T12:41:14Z</time>
      </trkpt>
      <trkpt lat="47.12121" lon="-0.78042">
        <ele>112</ele>
        <time>2022-09-19T12:41:33Z</time>
      </trkpt>
      <trkpt lat="47.12134" lon="-0.77988">
        <ele>112</ele>
        <time>2022-09-19T12:41:42Z</time>
      </trkpt>
      <trkpt lat="47.12135" lon="-0.77893">
        <ele>111</ele>
        <time>2022-09-19T12:41:57Z</time>
      </trkpt>
      <trkpt lat="47.12115" lon="-0.77785">
        <ele>110</ele>
        <time>2022-09-19T12:42:15Z</time>
      </trkpt>
      <trkpt lat="47.12091" lon="-0.77672">
        <ele>110</ele>
        <time>2022-09-19T12:42:33Z</time>
      </trkpt>
      <trkpt lat="47.12115" lon="-0.77599">
        <ele>111</ele>
        <time>2022-09-19T12:42:46Z</time>
      </trkpt>
      <trkpt lat="47.12154" lon="-0.77477">
        <ele>113</ele>
        <time>2022-09-19T12:43:08Z</time>
      </trkpt>
      <trkpt lat="47.1216" lon="-0.77296">
        <ele>115</ele>
        <time>2022-09-19T12:43:37Z</time>
      </trkpt>
      <trkpt lat="47.12148" lon="-0.77136">
        <ele>115</ele>
        <time>2022-09-19T12:44:02Z</time>
      </trkpt>
      <trkpt lat="47.12129" lon="-0.7705">
        <ele>114</ele>
        <time>2022-09-19T12:44:17Z</time>
      </trkpt>
      <trkpt lat="47.12067" lon="-0.76941">
        <ele>112</ele>
        <time>2022-09-19T12:44:39Z</time>
      </trkpt>
      <trkpt lat="47.12053" lon="-0.76847">
        <ele>113</ele>
        <time>2022-09-19T12:44:54Z</time>
      </trkpt>
      <trkpt lat="47.12035" lon="-0.76656">
        <ele>114</ele>
        <time>2022-09-19T12:45:25Z</time>
      </trkpt>
      <trkpt lat="47.12088" lon="-0.76632">
        <ele>114</ele>
        <time>2022-09-19T12:45:38Z</time>
      </trkpt>
      <trkpt lat="47.12142" lon="-0.766">
        <ele>117</ele>
        <time>2022-09-19T12:45:52Z</time>
      </trkpt>
      <trkpt lat="47.12223" lon="-0.76609">
        <ele>126</ele>
        <time>2022-09-19T12:46:11Z</time>
      </trkpt>
      <trkpt lat="47.123" lon="-0.76612">
        <ele>134</ele>
        <time>2022-09-19T12:46:29Z</time>
      </trkpt>
      <trkpt lat="47.12475" lon="-0.76715">
        <ele>144</ele>
        <time>2022-09-19T12:47:13Z</time>
      </trkpt>
      <trkpt lat="47.1253" lon="-0.76745">
        <ele>143</ele>
        <time>2022-09-19T12:47:26Z</time>
      </trkpt>
      <trkpt lat="47.12565" lon="-0.76822">
        <ele>144</ele>
        <time>2022-09-19T12:47:41Z</time>
      </trkpt>
      <trkpt lat="47.12584" lon="-0.76847">
        <ele>143</ele>
        <time>2022-09-19T12:47:47Z</time>
      </trkpt>
      <trkpt lat="47.12656" lon="-0.76863">
        <ele>143</ele>
        <time>2022-09-19T12:48:04Z</time>
      </trkpt>
      <trkpt lat="47.12748" lon="-0.76813">
        <ele>146</ele>
        <time>2022-09-19T12:48:27Z</time>
      </trkpt>
      <trkpt lat="47.12731" lon="-0.76613">
        <ele>143</ele>
        <time>2022-09-19T12:48:59Z</time>
      </trkpt>
      <trkpt lat="47.12732" lon="-0.76542">
        <ele>141</ele>
        <time>2022-09-19T12:49:10Z</time>
      </trkpt>
      <trkpt lat="47.12766" lon="-0.76398">
        <ele>143</ele>
        <time>2022-09-19T12:49:34Z</time>
      </trkpt>
      <trkpt lat="47.12883" lon="-0.76416">
        <ele>146</ele>
        <time>2022-09-19T12:50:02Z</time>
      </trkpt>
      <trkpt lat="47.12989" lon="-0.76367">
        <ele>148</ele>
        <time>2022-09-19T12:50:28Z</time>
      </trkpt>
      <trkpt lat="47.13048" lon="-0.76359">
        <ele>148</ele>
        <time>2022-09-19T12:50:42Z</time>
      </trkpt>
      <trkpt lat="47.13071" lon="-0.76432">
        <ele>149</ele>
        <time>2022-09-19T12:50:54Z</time>
      </trkpt>
      <trkpt lat="47.13108" lon="-0.76461">
        <ele>151</ele>
        <time>2022-09-19T12:51:04Z</time>
      </trkpt>
      <trkpt lat="47.13181" lon="-0.76484">
        <ele>151</ele>
        <time>2022-09-19T12:51:22Z</time>
      </trkpt>
      <trkpt lat="47.1324" lon="-0.76521">
        <ele>152</ele>
        <time>2022-09-19T12:51:37Z</time>
      </trkpt>
      <trkpt lat="47.13311" lon="-0.76527">
        <ele>155</ele>
        <time>2022-09-19T12:51:53Z</time>
      </trkpt>
      <trkpt lat="47.13353" lon="-0.76527">
        <ele>156</ele>
        <time>2022-09-19T12:52:03Z</time>
      </trkpt>
      <trkpt lat="47.13425" lon="-0.76544">
        <ele>160</ele>
        <time>2022-09-19T12:52:20Z</time>
      </trkpt>
      <trkpt lat="47.13498" lon="-0.76526">
        <ele>165</ele>
        <time>2022-09-19T12:52:37Z</time>
      </trkpt>
      <trkpt lat="47.1352" lon="-0.76619">
        <ele>166</ele>
        <time>2022-09-19T12:52:53Z</time>
      </trkpt>
      <trkpt lat="47.13669" lon="-0.76592">
        <ele>171</ele>
        <time>2022-09-19T12:53:28Z</time>
      </trkpt>
      <trkpt lat="47.13761" lon="-0.76573">
        <ele>173</ele>
        <time>2022-09-19T12:53:50Z</time>
      </trkpt>
      <trkpt lat="47.13775" lon="-0.76596">
        <ele>173</ele>
        <time>2022-09-19T12:53:55Z</time>
      </trkpt>
      <trkpt lat="47.13826" lon="-0.76511">
        <ele>173</ele>
        <time>2022-09-19T12:54:13Z</time>
      </trkpt>
      <trkpt lat="47.14037" lon="-0.76461">
        <ele>176</ele>
        <time>2022-09-19T12:55:03Z</time>
      </trkpt>
      <trkpt lat="47.14202" lon="-0.76384">
        <ele>176</ele>
        <time>2022-09-19T12:55:43Z</time>
      </trkpt>
      <trkpt lat="47.14354" lon="-0.76295">
        <ele>178</ele>
        <time>2022-09-19T12:56:21Z</time>
      </trkpt>
      <trkpt lat="47.14361" lon="-0.76237">
        <ele>179</ele>
        <time>2022-09-19T12:56:31Z</time>
      </trkpt>
      <trkpt lat="47.14392" lon="-0.76054">
        <ele>181</ele>
        <time>2022-09-19T12:57:01Z</time>
      </trkpt>
      <trkpt lat="47.14402" lon="-0.75895">
        <ele>184</ele>
        <time>2022-09-19T12:57:26Z</time>
      </trkpt>
      <trkpt lat="47.14418" lon="-0.75718">
        <ele>186</ele>
        <time>2022-09-19T12:57:54Z</time>
      </trkpt>
      <trkpt lat="47.14432" lon="-0.75705">
        <ele>186</ele>
        <time>2022-09-19T12:57:58Z</time>
      </trkpt>
      <trkpt lat="47.14434" lon="-0.75664">
        <ele>186</ele>
        <time>2022-09-19T12:58:05Z</time>
      </trkpt>
      <trkpt lat="47.14411" lon="-0.75556">
        <ele>189</ele>
        <time>2022-09-19T12:58:23Z</time>
      </trkpt>
      <trkpt lat="47.14396" lon="-0.7555">
        <ele>189</ele>
        <time>2022-09-19T12:58:26Z</time>
      </trkpt>
      <trkpt lat="47.14394" lon="-0.75473">
        <ele>189</ele>
        <time>2022-09-19T12:58:38Z</time>
      </trkpt>
      <trkpt lat="47.14404" lon="-0.75409">
        <ele>190</ele>
        <time>2022-09-19T12:58:49Z</time>
      </trkpt>
      <trkpt lat="47.14396" lon="-0.75403">
        <ele>189</ele>
        <time>2022-09-19T12:58:51Z</time>
      </trkpt>
      <trkpt lat="47.14402" lon="-0.75348">
        <ele>190</ele>
        <time>2022-09-19T12:59:00Z</time>
      </trkpt>
      <trkpt lat="47.14332" lon="-0.75331">
        <ele>187</ele>
        <time>2022-09-19T12:59:16Z</time>
      </trkpt>
      <trkpt lat="47.1424" lon="-0.753">
        <ele>182</ele>
        <time>2022-09-19T12:59:38Z</time>
      </trkpt>
      <trkpt lat="47.14095" lon="-0.75452">
        <ele>178</ele>
        <time>2022-09-19T13:00:20Z</time>
      </trkpt>
      <trkpt lat="47.14045" lon="-0.7542">
        <ele>175</ele>
        <time>2022-09-19T13:00:33Z</time>
      </trkpt>
      <trkpt lat="47.13954" lon="-0.75367">
        <ele>171</ele>
        <time>2022-09-19T13:00:56Z</time>
      </trkpt>
      <trkpt lat="47.13866" lon="-0.75262">
        <ele>169</ele>
        <time>2022-09-19T13:01:22Z</time>
      </trkpt>
      <trkpt lat="47.13753" lon="-0.7519">
        <ele>164</ele>
        <time>2022-09-19T13:01:51Z</time>
      </trkpt>
      <trkpt lat="47.13629" lon="-0.75114">
        <ele>156</ele>
        <time>2022-09-19T13:02:22Z</time>
      </trkpt>
      <trkpt lat="47.13596" lon="-0.7507">
        <ele>156</ele>
        <time>2022-09-19T13:02:33Z</time>
      </trkpt>
      <trkpt lat="47.13488" lon="-0.75013">
        <ele>156</ele>
        <time>2022-09-19T13:02:59Z</time>
      </trkpt>
      <trkpt lat="47.13451" lon="-0.74966">
        <ele>155</ele>
        <time>2022-09-19T13:03:11Z</time>
      </trkpt>
      <trkpt lat="47.13399" lon="-0.7494">
        <ele>151</ele>
        <time>2022-09-19T13:03:24Z</time>
      </trkpt>
      <trkpt lat="47.13387" lon="-0.74808">
        <ele>146</ele>
        <time>2022-09-19T13:03:45Z</time>
      </trkpt>
      <trkpt lat="47.1337" lon="-0.74794">
        <ele>145</ele>
        <time>2022-09-19T13:03:49Z</time>
      </trkpt>
      <trkpt lat="47.13307" lon="-0.74791">
        <ele>141</ele>
        <time>2022-09-19T13:04:04Z</time>
      </trkpt>
      <trkpt lat="47.13258" lon="-0.74785">
        <ele>137</ele>
        <time>2022-09-19T13:04:16Z</time>
      </trkpt>
      <trkpt lat="47.13139" lon="-0.74813">
        <ele>135</ele>
        <time>2022-09-19T13:04:44Z</time>
      </trkpt>
      <trkpt lat="47.13015" lon="-0.74834">
        <ele>131</ele>
        <time>2022-09-19T13:05:13Z</time>
      </trkpt>
      <trkpt lat="47.13015" lon="-0.74962">
        <ele>134</ele>
        <time>2022-09-19T13:05:33Z</time>
      </trkpt>
      <trkpt lat="47.12792" lon="-0.75036">
        <ele>131</ele>
        <time>2022-09-19T13:06:27Z</time>
      </trkpt>
      <trkpt lat="47.12653" lon="-0.75114">
        <ele>127</ele>
        <time>2022-09-19T13:07:01Z</time>
      </trkpt>
      <trkpt lat="47.12606" lon="-0.75255">
        <ele>123</ele>
        <time>2022-09-19T13:07:26Z</time>
      </trkpt>
      <trkpt lat="47.12585" lon="-0.75264">
        <ele>121</ele>
        <time>2022-09-19T13:07:31Z</time>
      </trkpt>
      <trkpt lat="47.12564" lon="-0.75297">
        <ele>122</ele>
        <time>2022-09-19T13:07:39Z</time>
      </trkpt>
      <trkpt lat="47.12534" lon="-0.75308">
        <ele>123</ele>
        <time>2022-09-19T13:07:46Z</time>
      </trkpt>
      <trkpt lat="47.12442" lon="-0.7538">
        <ele>129</ele>
        <time>2022-09-19T13:08:10Z</time>
      </trkpt>
      <trkpt lat="47.12415" lon="-0.75409">
        <ele>132</ele>
        <time>2022-09-19T13:08:18Z</time>
      </trkpt>
      <trkpt lat="47.12375" lon="-0.75412">
        <ele>134</ele>
        <time>2022-09-19T13:08:27Z</time>
      </trkpt>
      <trkpt lat="47.12327" lon="-0.75379">
        <ele>134</ele>
        <time>2022-09-19T13:08:40Z</time>
      </trkpt>
      <trkpt lat="47.12283" lon="-0.75315">
        <ele>132</ele>
        <time>2022-09-19T13:08:54Z</time>
      </trkpt>
      <trkpt lat="47.12235" lon="-0.75282">
        <ele>133</ele>
        <time>2022-09-19T13:09:07Z</time>
      </trkpt>
      <trkpt lat="47.12193" lon="-0.75301">
        <ele>135</ele>
        <time>2022-09-19T13:09:17Z</time>
      </trkpt>
      <trkpt lat="47.12159" lon="-0.75328">
        <ele>137</ele>
        <time>2022-09-19T13:09:26Z</time>
      </trkpt>
      <trkpt lat="47.12117" lon="-0.75337">
        <ele>141</ele>
        <time>2022-09-19T13:09:36Z</time>
      </trkpt>
      <trkpt lat="47.12049" lon="-0.75309">
        <ele>147</ele>
        <time>2022-09-19T13:09:52Z</time>
      </trkpt>
      <trkpt lat="47.11998" lon="-0.75323">
        <ele>152</ele>
        <time>2022-09-19T13:10:04Z</time>
      </trkpt>
      <trkpt lat="47.11942" lon="-0.75322">
        <ele>158</ele>
        <time>2022-09-19T13:10:17Z</time>
      </trkpt>
      <trkpt lat="47.11876" lon="-0.75388">
        <ele>165</ele>
        <time>2022-09-19T13:10:36Z</time>
      </trkpt>
      <trkpt lat="47.11781" lon="-0.75379">
        <ele>167</ele>
        <time>2022-09-19T13:10:58Z</time>
      </trkpt>
      <trkpt lat="47.11737" lon="-0.7525">
        <ele>166</ele>
        <time>2022-09-19T13:11:21Z</time>
      </trkpt>
      <trkpt lat="47.11621" lon="-0.75188">
        <ele>164</ele>
        <time>2022-09-19T13:11:50Z</time>
      </trkpt>
      <trkpt lat="47.11522" lon="-0.75128">
        <ele>165</ele>
        <time>2022-09-19T13:12:15Z</time>
      </trkpt>
      <trkpt lat="47.11473" lon="-0.74966">
        <ele>168</ele>
        <time>2022-09-19T13:12:43Z</time>
      </trkpt>
      <trkpt lat="47.11418" lon="-0.74755">
        <ele>164</ele>
        <time>2022-09-19T13:13:19Z</time>
      </trkpt>
      <trkpt lat="47.11359" lon="-0.74675">
        <ele>163</ele>
        <time>2022-09-19T13:13:38Z</time>
      </trkpt>
      <trkpt lat="47.11233" lon="-0.7471">
        <ele>164</ele>
        <time>2022-09-19T13:14:08Z</time>
      </trkpt>
      <trkpt lat="47.11171" lon="-0.74731">
        <ele>164</ele>
        <time>2022-09-19T13:14:23Z</time>
      </trkpt>
      <trkpt lat="47.11106" lon="-0.74737">
        <ele>165</ele>
        <time>2022-09-19T13:14:38Z</time>
      </trkpt>
      <trkpt lat="47.11051" lon="-0.74719">
        <ele>166</ele>
        <time>2022-09-19T13:14:51Z</time>
      </trkpt>
      <trkpt lat="47.11042" lon="-0.74618">
        <ele>167</ele>
        <time>2022-09-19T13:15:07Z</time>
      </trkpt>
      <trkpt lat="47.11062" lon="-0.74607">
        <ele>168</ele>
        <time>2022-09-19T13:15:12Z</time>
      </trkpt>
      <trkpt lat="47.11079" lon="-0.74571">
        <ele>168</ele>
        <time>2022-09-19T13:15:19Z</time>
      </trkpt>
      <trkpt lat="47.11141" lon="-0.74279">
        <ele>170</ele>
        <time>2022-09-19T13:16:08Z</time>
      </trkpt>
      <trkpt lat="47.11166" lon="-0.74048">
        <ele>169</ele>
        <time>2022-09-19T13:16:45Z</time>
      </trkpt>
      <trkpt lat="47.11015" lon="-0.74077">
        <ele>171</ele>
        <time>2022-09-19T13:17:21Z</time>
      </trkpt>
      <trkpt lat="47.10998" lon="-0.74094">
        <ele>171</ele>
        <time>2022-09-19T13:17:25Z</time>
      </trkpt>
      <trkpt lat="47.10952" lon="-0.74094">
        <ele>172</ele>
        <time>2022-09-19T13:17:36Z</time>
      </trkpt>
      <trkpt lat="47.10909" lon="-0.74107">
        <ele>172</ele>
        <time>2022-09-19T13:17:46Z</time>
      </trkpt>
      <trkpt lat="47.10821" lon="-0.74117">
        <ele>172</ele>
        <time>2022-09-19T13:18:07Z</time>
      </trkpt>
      <trkpt lat="47.10758" lon="-0.74133">
        <ele>171</ele>
        <time>2022-09-19T13:18:22Z</time>
      </trkpt>
      <trkpt lat="47.10541" lon="-0.74258">
        <ele>171</ele>
        <time>2022-09-19T13:19:16Z</time>
      </trkpt>
      <trkpt lat="47.10392" lon="-0.74354">
        <ele>171</ele>
        <time>2022-09-19T13:19:54Z</time>
      </trkpt>
      <trkpt lat="47.10323" lon="-0.74401">
        <ele>171</ele>
        <time>2022-09-19T13:20:12Z</time>
      </trkpt>
      <trkpt lat="47.10324" lon="-0.74502">
        <ele>171</ele>
        <time>2022-09-19T13:20:28Z</time>
      </trkpt>
      <trkpt lat="47.10325" lon="-0.74593">
        <ele>171</ele>
        <time>2022-09-19T13:20:43Z</time>
      </trkpt>
      <trkpt lat="47.10339" lon="-0.74627">
        <ele>171</ele>
        <time>2022-09-19T13:20:49Z</time>
      </trkpt>
      <trkpt lat="47.10335" lon="-0.74705">
        <ele>171</ele>
        <time>2022-09-19T13:21:01Z</time>
      </trkpt>
      <trkpt lat="47.10321" lon="-0.74768">
        <ele>170</ele>
        <time>2022-09-19T13:21:12Z</time>
      </trkpt>
      <trkpt lat="47.10272" lon="-0.74757">
        <ele>170</ele>
        <time>2022-09-19T13:21:23Z</time>
      </trkpt>
      <trkpt lat="47.10227" lon="-0.74733">
        <ele>170</ele>
        <time>2022-09-19T13:21:35Z</time>
      </trkpt>
      <trkpt lat="47.1017" lon="-0.7475">
        <ele>171</ele>
        <time>2022-09-19T13:21:48Z</time>
      </trkpt>
      <trkpt lat="47.10123" lon="-0.7476">
        <ele>170</ele>
        <time>2022-09-19T13:21:59Z</time>
      </trkpt>
      <trkpt lat="47.10159" lon="-0.74658">
        <ele>171</ele>
        <time>2022-09-19T13:22:18Z</time>
      </trkpt>
      <trkpt lat="47.10186" lon="-0.74575">
        <ele>170</ele>
        <time>2022-09-19T13:22:32Z</time>
      </trkpt>
      <trkpt lat="47.10199" lon="-0.74511">
        <ele>171</ele>
        <time>2022-09-19T13:22:43Z</time>
      </trkpt>
      <trkpt lat="47.10134" lon="-0.74479">
        <ele>171</ele>
        <time>2022-09-19T13:22:59Z</time>
      </trkpt>
      <trkpt lat="47.10076" lon="-0.74441">
        <ele>171</ele>
        <time>2022-09-19T13:23:14Z</time>
      </trkpt>
      <trkpt lat="47.10015" lon="-0.74513">
        <ele>171</ele>
        <time>2022-09-19T13:23:32Z</time>
      </trkpt>
      <trkpt lat="47.09968" lon="-0.74501">
        <ele>171</ele>
        <time>2022-09-19T13:23:43Z</time>
      </trkpt>
      <trkpt lat="47.09749" lon="-0.74628">
        <ele>171</ele>
        <time>2022-09-19T13:24:38Z</time>
      </trkpt>
      <trkpt lat="47.09682" lon="-0.74465">
        <ele>174</ele>
        <time>2022-09-19T13:25:08Z</time>
      </trkpt>
      <trkpt lat="47.0966" lon="-0.74395">
        <ele>175</ele>
        <time>2022-09-19T13:25:21Z</time>
      </trkpt>
      <trkpt lat="47.09643" lon="-0.74356">
        <ele>176</ele>
        <time>2022-09-19T13:25:28Z</time>
      </trkpt>
      <trkpt lat="47.0947" lon="-0.74052">
        <ele>173</ele>
        <time>2022-09-19T13:26:31Z</time>
      </trkpt>
      <trkpt lat="47.0943" lon="-0.7396">
        <ele>175</ele>
        <time>2022-09-19T13:26:48Z</time>
      </trkpt>
      <trkpt lat="47.09377" lon="-0.7391">
        <ele>178</ele>
        <time>2022-09-19T13:27:03Z</time>
      </trkpt>
      <trkpt lat="47.0935" lon="-0.73865">
        <ele>180</ele>
        <time>2022-09-19T13:27:13Z</time>
      </trkpt>
      <trkpt lat="47.09312" lon="-0.73921">
        <ele>180</ele>
        <time>2022-09-19T13:27:25Z</time>
      </trkpt>
      <trkpt lat="47.09301" lon="-0.73917">
        <ele>180</ele>
        <time>2022-09-19T13:27:28Z</time>
      </trkpt>
      <trkpt lat="47.09311" lon="-0.73863">
        <ele>181</ele>
        <time>2022-09-19T13:27:37Z</time>
      </trkpt>
      <trkpt lat="47.09313" lon="-0.738">
        <ele>182</ele>
        <time>2022-09-19T13:27:47Z</time>
      </trkpt>
      <trkpt lat="47.09298" lon="-0.738">
        <ele>182</ele>
        <time>2022-09-19T13:27:50Z</time>
      </trkpt>
      <trkpt lat="47.09157" lon="-0.73624">
        <ele>190</ele>
        <time>2022-09-19T13:28:33Z</time>
      </trkpt>
      <trkpt lat="47.09115" lon="-0.73704">
        <ele>190</ele>
        <time>2022-09-19T13:28:49Z</time>
      </trkpt>
      <trkpt lat="47.09075" lon="-0.73815">
        <ele>191</ele>
        <time>2022-09-19T13:29:09Z</time>
      </trkpt>
      <trkpt lat="47.09055" lon="-0.73844">
        <ele>192</ele>
        <time>2022-09-19T13:29:16Z</time>
      </trkpt>
      <trkpt lat="47.08967" lon="-0.73884">
        <ele>194</ele>
        <time>2022-09-19T13:29:38Z</time>
      </trkpt>
      <trkpt lat="47.08902" lon="-0.73914">
        <ele>193</ele>
        <time>2022-09-19T13:29:53Z</time>
      </trkpt>
      <trkpt lat="47.08838" lon="-0.73935">
        <ele>191</ele>
        <time>2022-09-19T13:30:09Z</time>
      </trkpt>
      <trkpt lat="47.0878" lon="-0.73966">
        <ele>185</ele>
        <time>2022-09-19T13:30:23Z</time>
      </trkpt>
      <trkpt lat="47.08432" lon="-0.73991">
        <ele>185</ele>
        <time>2022-09-19T13:31:45Z</time>
      </trkpt>
      <trkpt lat="47.08478" lon="-0.74174">
        <ele>183</ele>
        <time>2022-09-19T13:32:16Z</time>
      </trkpt>
      <trkpt lat="47.08459" lon="-0.74214">
        <ele>184</ele>
        <time>2022-09-19T13:32:23Z</time>
      </trkpt>
      <trkpt lat="47.08422" lon="-0.74242">
        <ele>185</ele>
        <time>2022-09-19T13:32:33Z</time>
      </trkpt>
      <trkpt lat="47.08385" lon="-0.74267">
        <ele>185</ele>
        <time>2022-09-19T13:32:43Z</time>
      </trkpt>
      <trkpt lat="47.08345" lon="-0.74326">
        <ele>185</ele>
        <time>2022-09-19T13:32:56Z</time>
      </trkpt>
      <trkpt lat="47.08303" lon="-0.74451">
        <ele>181</ele>
        <time>2022-09-19T13:33:18Z</time>
      </trkpt>
      <trkpt lat="47.08263" lon="-0.74564">
        <ele>178</ele>
        <time>2022-09-19T13:33:38Z</time>
      </trkpt>
      <trkpt lat="47.08362" lon="-0.74874">
        <ele>173</ele>
        <time>2022-09-19T13:34:33Z</time>
      </trkpt>
      <trkpt lat="47.08468" lon="-0.75072">
        <ele>172</ele>
        <time>2022-09-19T13:35:13Z</time>
      </trkpt>
      <trkpt lat="47.08574" lon="-0.75292">
        <ele>176</ele>
        <time>2022-09-19T13:35:56Z</time>
      </trkpt>
      <trkpt lat="47.08621" lon="-0.75524">
        <ele>176</ele>
        <time>2022-09-19T13:36:34Z</time>
      </trkpt>
      <trkpt lat="47.08646" lon="-0.75618">
        <ele>176</ele>
        <time>2022-09-19T13:36:50Z</time>
      </trkpt>
      <trkpt lat="47.08636" lon="-0.75627">
        <ele>176</ele>
        <time>2022-09-19T13:36:53Z</time>
      </trkpt>
      <trkpt lat="47.0863" lon="-0.75698">
        <ele>175</ele>
        <time>2022-09-19T13:37:04Z</time>
      </trkpt>
      <trkpt lat="47.08589" lon="-0.75758">
        <ele>174</ele>
        <time>2022-09-19T13:37:18Z</time>
      </trkpt>
      <trkpt lat="47.08563" lon="-0.75792">
        <ele>175</ele>
        <time>2022-09-19T13:37:26Z</time>
      </trkpt>
      <trkpt lat="47.08498" lon="-0.759">
        <ele>176</ele>
        <time>2022-09-19T13:37:49Z</time>
      </trkpt>
      <trkpt lat="47.0843" lon="-0.75991">
        <ele>178</ele>
        <time>2022-09-19T13:38:10Z</time>
      </trkpt>
      <trkpt lat="47.08354" lon="-0.76214">
        <ele>173</ele>
        <time>2022-09-19T13:38:50Z</time>
      </trkpt>
      <trkpt lat="47.08334" lon="-0.76354">
        <ele>174</ele>
        <time>2022-09-19T13:39:13Z</time>
      </trkpt>
      <trkpt lat="47.08334" lon="-0.76394">
        <ele>175</ele>
        <time>2022-09-19T13:39:19Z</time>
      </trkpt>
      <trkpt lat="47.08319" lon="-0.7645">
        <ele>173</ele>
        <time>2022-09-19T13:39:29Z</time>
      </trkpt>
      <trkpt lat="47.08329" lon="-0.76542">
        <ele>170</ele>
        <time>2022-09-19T13:39:43Z</time>
      </trkpt>
      <trkpt lat="47.08325" lon="-0.76726">
        <ele>169</ele>
        <time>2022-09-19T13:40:13Z</time>
      </trkpt>
      <trkpt lat="47.08329" lon="-0.76749">
        <ele>170</ele>
        <time>2022-09-19T13:40:16Z</time>
      </trkpt>
      <trkpt lat="47.08346" lon="-0.76787">
        <ele>170</ele>
        <time>2022-09-19T13:40:24Z</time>
      </trkpt>
      <trkpt lat="47.08346" lon="-0.76833">
        <ele>170</ele>
        <time>2022-09-19T13:40:31Z</time>
      </trkpt>
      <trkpt lat="47.08321" lon="-0.76895">
        <ele>170</ele>
        <time>2022-09-19T13:40:42Z</time>
      </trkpt>
      <trkpt lat="47.08298" lon="-0.77045">
        <ele>171</ele>
        <time>2022-09-19T13:41:07Z</time>
      </trkpt>
      <trkpt lat="47.08314" lon="-0.77133">
        <ele>170</ele>
        <time>2022-09-19T13:41:21Z</time>
      </trkpt>
      <trkpt lat="47.08329" lon="-0.77198">
        <ele>168</ele>
        <time>2022-09-19T13:41:32Z</time>
      </trkpt>
      <trkpt lat="47.08315" lon="-0.77257">
        <ele>167</ele>
        <time>2022-09-19T13:41:42Z</time>
      </trkpt>
      <trkpt lat="47.08278" lon="-0.77329">
        <ele>167</ele>
        <time>2022-09-19T13:41:57Z</time>
      </trkpt>
      <trkpt lat="47.08256" lon="-0.77389">
        <ele>166</ele>
        <time>2022-09-19T13:42:07Z</time>
      </trkpt>
      <trkpt lat="47.08236" lon="-0.77446">
        <ele>165</ele>
        <time>2022-09-19T13:42:18Z</time>
      </trkpt>
      <trkpt lat="47.07923" lon="-0.78444">
        <ele>164</ele>
        <time>2022-09-19T13:45:12Z</time>
      </trkpt>
      <trkpt lat="47.07618" lon="-0.78998">
        <ele>163</ele>
        <time>2022-09-19T13:47:06Z</time>
      </trkpt>
      <trkpt lat="47.07248" lon="-0.79655">
        <ele>155</ele>
        <time>2022-09-19T13:49:21Z</time>
      </trkpt>
      <trkpt lat="47.07243" lon="-0.79689">
        <ele>154</ele>
        <time>2022-09-19T13:49:27Z</time>
      </trkpt>
      <trkpt lat="47.07228" lon="-0.79745">
        <ele>153</ele>
        <time>2022-09-19T13:49:36Z</time>
      </trkpt>
      <trkpt lat="47.07215" lon="-0.80012">
        <ele>146</ele>
        <time>2022-09-19T13:50:19Z</time>
      </trkpt>
      <trkpt lat="47.07189" lon="-0.80497">
        <ele>137</ele>
        <time>2022-09-19T13:51:36Z</time>
      </trkpt>
      <trkpt lat="47.07079" lon="-0.80667">
        <ele>137</ele>
        <time>2022-09-19T13:52:14Z</time>
      </trkpt>
      <trkpt lat="47.06937" lon="-0.80818">
        <ele>135</ele>
        <time>2022-09-19T13:52:55Z</time>
      </trkpt>
      <trkpt lat="47.06811" lon="-0.81041">
        <ele>135</ele>
        <time>2022-09-19T13:53:41Z</time>
      </trkpt>
      <trkpt lat="47.06738" lon="-0.81231">
        <ele>132</ele>
        <time>2022-09-19T13:54:15Z</time>
      </trkpt>
      <trkpt lat="47.06675" lon="-0.81209">
        <ele>132</ele>
        <time>2022-09-19T13:54:30Z</time>
      </trkpt>
      <trkpt lat="47.06351" lon="-0.81209">
        <ele>137</ele>
        <time>2022-09-19T13:55:46Z</time>
      </trkpt>
      <trkpt lat="47.06329" lon="-0.81229">
        <ele>138</ele>
        <time>2022-09-19T13:55:52Z</time>
      </trkpt>
      <trkpt lat="47.06316" lon="-0.81238">
        <ele>138</ele>
        <time>2022-09-19T13:55:56Z</time>
      </trkpt>
      <trkpt lat="47.05859" lon="-0.8124">
        <ele>145</ele>
        <time>2022-09-19T13:57:42Z</time>
      </trkpt>
      <trkpt lat="47.05829" lon="-0.81199">
        <ele>146</ele>
        <time>2022-09-19T13:57:52Z</time>
      </trkpt>
      <trkpt lat="47.05791" lon="-0.81215">
        <ele>147</ele>
        <time>2022-09-19T13:58:01Z</time>
      </trkpt>
      <trkpt lat="47.05708" lon="-0.81258">
        <ele>149</ele>
        <time>2022-09-19T13:58:22Z</time>
      </trkpt>
      <trkpt lat="47.05566" lon="-0.81319">
        <ele>151</ele>
        <time>2022-09-19T13:58:56Z</time>
      </trkpt>
      <trkpt lat="47.05494" lon="-0.81308">
        <ele>151</ele>
        <time>2022-09-19T13:59:13Z</time>
      </trkpt>
      <trkpt lat="47.05416" lon="-0.81243">
        <ele>148</ele>
        <time>2022-09-19T13:59:34Z</time>
      </trkpt>
      <trkpt lat="47.05301" lon="-0.81264">
        <ele>144</ele>
        <time>2022-09-19T14:00:01Z</time>
      </trkpt>
      <trkpt lat="47.05134" lon="-0.81254">
        <ele>139</ele>
        <time>2022-09-19T14:00:40Z</time>
      </trkpt>
      <trkpt lat="47.05101" lon="-0.8127">
        <ele>138</ele>
        <time>2022-09-19T14:00:48Z</time>
      </trkpt>
      <trkpt lat="47.05081" lon="-0.81248">
        <ele>138</ele>
        <time>2022-09-19T14:00:54Z</time>
      </trkpt>
      <trkpt lat="47.04953" lon="-0.81324">
        <ele>132</ele>
        <time>2022-09-19T14:01:26Z</time>
      </trkpt>
      <trkpt lat="47.04891" lon="-0.81416">
        <ele>129</ele>
        <time>2022-09-19T14:01:47Z</time>
      </trkpt>
      <trkpt lat="47.04869" lon="-0.81415">
        <ele>128</ele>
        <time>2022-09-19T14:01:52Z</time>
      </trkpt>
      <trkpt lat="47.04858" lon="-0.81447">
        <ele>128</ele>
        <time>2022-09-19T14:01:58Z</time>
      </trkpt>
      <trkpt lat="47.04709" lon="-0.81571">
        <ele>121</ele>
        <time>2022-09-19T14:02:38Z</time>
      </trkpt>
      <trkpt lat="47.0465" lon="-0.81611">
        <ele>120</ele>
        <time>2022-09-19T14:02:53Z</time>
      </trkpt>
      <trkpt lat="47.04616" lon="-0.81609">
        <ele>119</ele>
        <time>2022-09-19T14:03:01Z</time>
      </trkpt>
      <trkpt lat="47.04567" lon="-0.81755">
        <ele>120</ele>
        <time>2022-09-19T14:03:27Z</time>
      </trkpt>
      <trkpt lat="47.04545" lon="-0.81794">
        <ele>119</ele>
        <time>2022-09-19T14:03:35Z</time>
      </trkpt>
    </trkseg>
  </trk>
</gpx>